sensor_id;sensor_type;location;lat;lon;timestamp;temperature;humidity
15341;DHT22;7770;52.158;5.372;2022-07-26T00:02:07;18.70;99.90
15341;DHT22;7770;52.158;5.372;2022-07-26T00:04:53;18.60;99.90
15341;DHT22;7770;52.158;5.372;2022-07-26T00:07:39;18.50;99.90
15341;DHT22;7770;52.158;5.372;2022-07-26T00:10:25;18.40;99.90
15341;DHT22;7770;52.158;5.372;2022-07-26T00:13:11;18.40;99.90
15341;DHT22;7770;52.158;5.372;2022-07-26T00:15:58;18.30;99.90
15341;DHT22;7770;52.158;5.372;2022-07-26T00:18:44;18.20;99.90
15341;DHT22;7770;52.158;5.372;2022-07-26T00:21:31;18.20;99.90
15341;DHT22;7770;52.158;5.372;2022-07-26T00:24:17;18.20;99.90
15341;DHT22;7770;52.158;5.372;2022-07-26T00:27:03;18.30;99.90
15341;DHT22;7770;52.158;5.372;2022-07-26T00:29:49;18.30;99.90
15341;DHT22;7770;52.158;5.372;2022-07-26T00:32:35;18.40;99.90
15341;DHT22;7770;52.158;5.372;2022-07-26T00:35:22;18.40;99.90
15341;DHT22;7770;52.158;5.372;2022-07-26T00:38:08;18.50;99.90
15341;DHT22;7770;52.158;5.372;2022-07-26T00:40:54;18.50;99.90
15341;DHT22;7770;52.158;5.372;2022-07-26T00:43:57;18.60;99.90
15341;DHT22;7770;52.158;5.372;2022-07-26T00:46:44;18.60;99.90
15341;DHT22;7770;52.158;5.372;2022-07-26T00:49:30;18.60;99.90
15341;DHT22;7770;52.158;5.372;2022-07-26T00:52:16;18.70;99.90
15341;DHT22;7770;52.158;5.372;2022-07-26T00:55:04;18.70;99.90
15341;DHT22;7770;52.158;5.372;2022-07-26T00:57:52;18.70;99.90
15341;DHT22;7770;52.158;5.372;2022-07-26T01:00:38;18.80;99.90
15341;DHT22;7770;52.158;5.372;2022-07-26T01:03:24;18.80;99.90
15341;DHT22;7770;52.158;5.372;2022-07-26T01:06:10;18.90;99.90
15341;DHT22;7770;52.158;5.372;2022-07-26T01:08:57;18.90;99.90
15341;DHT22;7770;52.158;5.372;2022-07-26T01:11:43;18.90;99.90
15341;DHT22;7770;52.158;5.372;2022-07-26T01:14:30;18.90;99.90
15341;DHT22;7770;52.158;5.372;2022-07-26T01:17:16;18.90;99.90
15341;DHT22;7770;52.158;5.372;2022-07-26T01:20:04;18.90;99.90
15341;DHT22;7770;52.158;5.372;2022-07-26T01:22:52;19.00;99.90
15341;DHT22;7770;52.158;5.372;2022-07-26T01:25:38;18.90;99.90
15341;DHT22;7770;52.158;5.372;2022-07-26T01:28:24;18.80;99.90
15341;DHT22;7770;52.158;5.372;2022-07-26T01:31:11;18.80;99.90
15341;DHT22;7770;52.158;5.372;2022-07-26T01:33:57;18.80;99.90
15341;DHT22;7770;52.158;5.372;2022-07-26T01:36:43;18.80;99.90
15341;DHT22;7770;52.158;5.372;2022-07-26T01:39:29;18.70;99.90
15341;DHT22;7770;52.158;5.372;2022-07-26T01:42:15;18.60;99.90
15341;DHT22;7770;52.158;5.372;2022-07-26T01:45:01;18.50;99.90
15341;DHT22;7770;52.158;5.372;2022-07-26T01:47:47;18.30;99.90
15341;DHT22;7770;52.158;5.372;2022-07-26T01:50:35;18.30;99.90
15341;DHT22;7770;52.158;5.372;2022-07-26T01:53:23;18.30;99.90
15341;DHT22;7770;52.158;5.372;2022-07-26T01:56:09;18.40;99.90
15341;DHT22;7770;52.158;5.372;2022-07-26T01:58:55;18.50;99.90
15341;DHT22;7770;52.158;5.372;2022-07-26T02:01:41;18.50;99.90
15341;DHT22;7770;52.158;5.372;2022-07-26T02:04:27;18.50;99.90
15341;DHT22;7770;52.158;5.372;2022-07-26T02:07:37;18.50;99.90
15341;DHT22;7770;52.158;5.372;2022-07-26T02:10:25;18.40;99.90
15341;DHT22;7770;52.158;5.372;2022-07-26T02:13:33;18.40;99.90
15341;DHT22;7770;52.158;5.372;2022-07-26T02:16:24;18.40;99.90
15341;DHT22;7770;52.158;5.372;2022-07-26T02:19:10;18.30;99.90
15341;DHT22;7770;52.158;5.372;2022-07-26T02:21:56;18.20;99.90
15341;DHT22;7770;52.158;5.372;2022-07-26T02:24:42;18.10;99.90
15341;DHT22;7770;52.158;5.372;2022-07-26T02:27:28;18.00;99.90
15341;DHT22;7770;52.158;5.372;2022-07-26T02:30:14;17.90;99.90
15341;DHT22;7770;52.158;5.372;2022-07-26T02:33:00;17.80;99.90
15341;DHT22;7770;52.158;5.372;2022-07-26T02:35:46;17.80;99.90
15341;DHT22;7770;52.158;5.372;2022-07-26T02:38:33;17.80;99.90
15341;DHT22;7770;52.158;5.372;2022-07-26T02:41:19;17.90;99.90
15341;DHT22;7770;52.158;5.372;2022-07-26T02:44:05;18.00;99.90
15341;DHT22;7770;52.158;5.372;2022-07-26T02:46:52;18.00;99.90
15341;DHT22;7770;52.158;5.372;2022-07-26T02:49:38;17.90;99.90
15341;DHT22;7770;52.158;5.372;2022-07-26T02:52:24;18.00;99.90
15341;DHT22;7770;52.158;5.372;2022-07-26T02:55:10;18.00;99.90
15341;DHT22;7770;52.158;5.372;2022-07-26T02:57:56;18.00;99.90
15341;DHT22;7770;52.158;5.372;2022-07-26T03:00:43;17.90;99.90
15341;DHT22;7770;52.158;5.372;2022-07-26T03:03:29;17.80;99.90
15341;DHT22;7770;52.158;5.372;2022-07-26T03:06:15;17.80;99.90
15341;DHT22;7770;52.158;5.372;2022-07-26T03:09:01;17.70;99.90
15341;DHT22;7770;52.158;5.372;2022-07-26T03:11:48;17.60;99.90
15341;DHT22;7770;52.158;5.372;2022-07-26T03:14:34;17.50;99.90
15341;DHT22;7770;52.158;5.372;2022-07-26T03:17:20;17.40;99.90
15341;DHT22;7770;52.158;5.372;2022-07-26T03:20:06;17.40;99.90
15341;DHT22;7770;52.158;5.372;2022-07-26T03:22:53;17.30;99.90
15341;DHT22;7770;52.158;5.372;2022-07-26T03:25:39;17.20;99.90
15341;DHT22;7770;52.158;5.372;2022-07-26T03:28:25;17.10;99.90
15341;DHT22;7770;52.158;5.372;2022-07-26T03:31:11;17.10;99.90
15341;DHT22;7770;52.158;5.372;2022-07-26T03:33:57;17.10;99.90
15341;DHT22;7770;52.158;5.372;2022-07-26T03:36:44;17.00;99.90
15341;DHT22;7770;52.158;5.372;2022-07-26T03:39:30;16.90;99.90
15341;DHT22;7770;52.158;5.372;2022-07-26T03:42:16;16.90;99.90
15341;DHT22;7770;52.158;5.372;2022-07-26T03:45:02;16.80;99.90
15341;DHT22;7770;52.158;5.372;2022-07-26T03:47:49;16.70;99.90
15341;DHT22;7770;52.158;5.372;2022-07-26T03:50:35;16.60;99.90
15341;DHT22;7770;52.158;5.372;2022-07-26T03:53:22;16.60;99.90
15341;DHT22;7770;52.158;5.372;2022-07-26T03:56:08;16.50;99.90
15341;DHT22;7770;52.158;5.372;2022-07-26T03:59:13;16.40;99.90
15341;DHT22;7770;52.158;5.372;2022-07-26T04:01:59;16.40;99.90
15341;DHT22;7770;52.158;5.372;2022-07-26T04:04:45;16.40;99.90
15341;DHT22;7770;52.158;5.372;2022-07-26T04:07:31;16.40;99.90
15341;DHT22;7770;52.158;5.372;2022-07-26T04:10:17;16.40;99.90
15341;DHT22;7770;52.158;5.372;2022-07-26T04:13:03;16.40;99.90
15341;DHT22;7770;52.158;5.372;2022-07-26T04:15:49;16.40;99.90
15341;DHT22;7770;52.158;5.372;2022-07-26T04:18:35;16.40;99.90
15341;DHT22;7770;52.158;5.372;2022-07-26T04:21:22;16.40;99.90
15341;DHT22;7770;52.158;5.372;2022-07-26T04:24:08;16.40;99.90
15341;DHT22;7770;52.158;5.372;2022-07-26T04:26:54;16.40;99.90
15341;DHT22;7770;52.158;5.372;2022-07-26T04:29:40;16.50;99.90
15341;DHT22;7770;52.158;5.372;2022-07-26T04:32:26;16.50;99.90
15341;DHT22;7770;52.158;5.372;2022-07-26T04:35:13;16.50;99.90
15341;DHT22;7770;52.158;5.372;2022-07-26T04:38:00;16.50;99.90
15341;DHT22;7770;52.158;5.372;2022-07-26T04:40:50;16.60;99.90
15341;DHT22;7770;52.158;5.372;2022-07-26T04:43:36;16.70;99.90
15341;DHT22;7770;52.158;5.372;2022-07-26T04:46:22;16.80;99.90
15341;DHT22;7770;52.158;5.372;2022-07-26T04:49:09;16.90;99.90
15341;DHT22;7770;52.158;5.372;2022-07-26T04:51:55;17.00;99.90
15341;DHT22;7770;52.158;5.372;2022-07-26T04:54:41;17.40;99.90
15341;DHT22;7770;52.158;5.372;2022-07-26T04:57:27;17.60;99.90
15341;DHT22;7770;52.158;5.372;2022-07-26T05:00:15;17.90;99.90
15341;DHT22;7770;52.158;5.372;2022-07-26T05:03:05;18.10;99.90
15341;DHT22;7770;52.158;5.372;2022-07-26T05:05:52;18.20;99.90
15341;DHT22;7770;52.158;5.372;2022-07-26T05:08:38;18.40;99.90
15341;DHT22;7770;52.158;5.372;2022-07-26T05:11:26;18.40;99.90
15341;DHT22;7770;52.158;5.372;2022-07-26T05:14:12;18.50;99.90
15341;DHT22;7770;52.158;5.372;2022-07-26T05:16:58;18.50;99.90
15341;DHT22;7770;52.158;5.372;2022-07-26T05:19:44;18.40;99.90
15341;DHT22;7770;52.158;5.372;2022-07-26T05:22:30;18.40;99.90
15341;DHT22;7770;52.158;5.372;2022-07-26T05:25:16;18.30;99.90
15341;DHT22;7770;52.158;5.372;2022-07-26T05:28:02;18.20;99.90
15341;DHT22;7770;52.158;5.372;2022-07-26T05:30:49;17.90;99.90
15341;DHT22;7770;52.158;5.372;2022-07-26T05:33:35;17.60;99.90
15341;DHT22;7770;52.158;5.372;2022-07-26T05:36:21;17.50;99.90
15341;DHT22;7770;52.158;5.372;2022-07-26T05:39:07;17.40;99.90
15341;DHT22;7770;52.158;5.372;2022-07-26T05:41:53;17.30;99.90
15341;DHT22;7770;52.158;5.372;2022-07-26T05:44:39;17.20;99.90
15341;DHT22;7770;52.158;5.372;2022-07-26T05:47:25;17.20;99.90
15341;DHT22;7770;52.158;5.372;2022-07-26T05:50:11;17.20;99.90
15341;DHT22;7770;52.158;5.372;2022-07-26T05:52:57;17.20;99.90
15341;DHT22;7770;52.158;5.372;2022-07-26T05:55:43;17.20;99.90
15341;DHT22;7770;52.158;5.372;2022-07-26T05:58:29;17.30;99.90
15341;DHT22;7770;52.158;5.372;2022-07-26T06:01:15;17.40;99.90
15341;DHT22;7770;52.158;5.372;2022-07-26T06:04:01;17.50;99.90
15341;DHT22;7770;52.158;5.372;2022-07-26T06:06:48;17.60;99.90
15341;DHT22;7770;52.158;5.372;2022-07-26T06:09:34;17.60;99.90
15341;DHT22;7770;52.158;5.372;2022-07-26T06:12:20;17.60;99.90
15341;DHT22;7770;52.158;5.372;2022-07-26T06:15:06;17.70;99.90
15341;DHT22;7770;52.158;5.372;2022-07-26T06:17:52;17.80;99.90
15341;DHT22;7770;52.158;5.372;2022-07-26T06:20:40;17.70;99.90
15341;DHT22;7770;52.158;5.372;2022-07-26T06:23:26;17.60;99.90
15341;DHT22;7770;52.158;5.372;2022-07-26T06:26:12;17.40;99.90
15341;DHT22;7770;52.158;5.372;2022-07-26T06:28:59;17.40;99.90
15341;DHT22;7770;52.158;5.372;2022-07-26T06:31:46;17.50;99.90
15341;DHT22;7770;52.158;5.372;2022-07-26T06:34:32;17.40;99.90
15341;DHT22;7770;52.158;5.372;2022-07-26T06:37:18;17.40;99.90
15341;DHT22;7770;52.158;5.372;2022-07-26T06:40:05;17.40;99.90
15341;DHT22;7770;52.158;5.372;2022-07-26T06:42:52;17.50;99.90
15341;DHT22;7770;52.158;5.372;2022-07-26T06:45:38;17.60;99.90
15341;DHT22;7770;52.158;5.372;2022-07-26T06:48:24;17.70;99.90
15341;DHT22;7770;52.158;5.372;2022-07-26T06:51:10;17.90;99.90
15341;DHT22;7770;52.158;5.372;2022-07-26T06:53:56;17.90;99.90
15341;DHT22;7770;52.158;5.372;2022-07-26T06:56:42;18.00;99.90
15341;DHT22;7770;52.158;5.372;2022-07-26T06:59:28;18.00;99.90
15341;DHT22;7770;52.158;5.372;2022-07-26T07:02:14;18.10;99.90
15341;DHT22;7770;52.158;5.372;2022-07-26T07:05:00;18.30;99.90
15341;DHT22;7770;52.158;5.372;2022-07-26T07:07:46;18.50;99.90
15341;DHT22;7770;52.158;5.372;2022-07-26T07:10:33;18.50;99.90
15341;DHT22;7770;52.158;5.372;2022-07-26T07:13:19;18.30;99.90
15341;DHT22;7770;52.158;5.372;2022-07-26T07:16:05;18.00;99.90
15341;DHT22;7770;52.158;5.372;2022-07-26T07:18:51;17.90;99.90
15341;DHT22;7770;52.158;5.372;2022-07-26T07:21:37;18.10;99.90
15341;DHT22;7770;52.158;5.372;2022-07-26T07:24:24;18.20;99.90
15341;DHT22;7770;52.158;5.372;2022-07-26T07:27:10;18.30;99.90
15341;DHT22;7770;52.158;5.372;2022-07-26T07:29:56;18.40;99.90
15341;DHT22;7770;52.158;5.372;2022-07-26T07:32:42;18.70;99.90
15341;DHT22;7770;52.158;5.372;2022-07-26T07:35:28;19.00;99.90
15341;DHT22;7770;52.158;5.372;2022-07-26T07:38:14;19.20;99.90
15341;DHT22;7770;52.158;5.372;2022-07-26T07:41:00;19.30;99.90
15341;DHT22;7770;52.158;5.372;2022-07-26T07:43:46;19.40;99.90
15341;DHT22;7770;52.158;5.372;2022-07-26T07:46:33;19.50;99.90
15341;DHT22;7770;52.158;5.372;2022-07-26T07:49:19;19.50;99.90
15341;DHT22;7770;52.158;5.372;2022-07-26T07:52:06;19.60;99.90
15341;DHT22;7770;52.158;5.372;2022-07-26T07:54:52;19.80;99.90
15341;DHT22;7770;52.158;5.372;2022-07-26T07:57:38;20.00;99.90
15341;DHT22;7770;52.158;5.372;2022-07-26T08:00:24;20.40;99.90
15341;DHT22;7770;52.158;5.372;2022-07-26T08:03:11;20.50;99.90
15341;DHT22;7770;52.158;5.372;2022-07-26T08:05:57;20.90;99.90
15341;DHT22;7770;52.158;5.372;2022-07-26T08:08:43;22.80;99.90
15341;DHT22;7770;52.158;5.372;2022-07-26T08:11:29;23.50;99.90
15341;DHT22;7770;52.158;5.372;2022-07-26T08:14:16;23.20;99.90
15341;DHT22;7770;52.158;5.372;2022-07-26T08:17:02;22.70;99.90
15341;DHT22;7770;52.158;5.372;2022-07-26T08:19:48;22.70;99.90
15341;DHT22;7770;52.158;5.372;2022-07-26T08:22:34;23.40;99.90
15341;DHT22;7770;52.158;5.372;2022-07-26T08:25:20;24.10;99.90
15341;DHT22;7770;52.158;5.372;2022-07-26T08:28:06;24.20;99.90
15341;DHT22;7770;52.158;5.372;2022-07-26T08:30:52;24.80;99.90
15341;DHT22;7770;52.158;5.372;2022-07-26T08:33:39;25.20;99.90
15341;DHT22;7770;52.158;5.372;2022-07-26T08:36:25;24.50;99.90
15341;DHT22;7770;52.158;5.372;2022-07-26T08:39:11;23.10;99.90
15341;DHT22;7770;52.158;5.372;2022-07-26T08:41:57;22.10;99.90
15341;DHT22;7770;52.158;5.372;2022-07-26T08:44:46;21.50;99.90
15341;DHT22;7770;52.158;5.372;2022-07-26T08:47:33;22.50;99.90
15341;DHT22;7770;52.158;5.372;2022-07-26T08:50:19;22.40;99.90
15341;DHT22;7770;52.158;5.372;2022-07-26T08:53:06;21.80;99.90
15341;DHT22;7770;52.158;5.372;2022-07-26T08:55:57;22.40;99.90
15341;DHT22;7770;52.158;5.372;2022-07-26T08:58:43;23.90;99.90
15341;DHT22;7770;52.158;5.372;2022-07-26T09:01:30;25.00;99.90
15341;DHT22;7770;52.158;5.372;2022-07-26T09:04:22;26.00;99.90
15341;DHT22;7770;52.158;5.372;2022-07-26T09:07:15;25.60;99.90
15341;DHT22;7770;52.158;5.372;2022-07-26T09:10:06;24.80;99.90
15341;DHT22;7770;52.158;5.372;2022-07-26T09:12:56;25.00;99.90
15341;DHT22;7770;52.158;5.372;2022-07-26T09:15:42;24.20;99.90
15341;DHT22;7770;52.158;5.372;2022-07-26T09:18:28;23.00;99.90
15341;DHT22;7770;52.158;5.372;2022-07-26T09:21:32;22.20;99.90
15341;DHT22;7770;52.158;5.372;2022-07-26T09:24:30;21.60;99.90
15341;DHT22;7770;52.158;5.372;2022-07-26T09:27:18;21.40;99.90
15341;DHT22;7770;52.158;5.372;2022-07-26T09:30:07;21.60;99.90
15341;DHT22;7770;52.158;5.372;2022-07-26T09:36:08;21.10;99.90
15341;DHT22;7770;52.158;5.372;2022-07-26T09:38:56;22.30;99.90
15341;DHT22;7770;52.158;5.372;2022-07-26T09:41:45;23.10;99.90
15341;DHT22;7770;52.158;5.372;2022-07-26T09:44:31;22.70;99.90
15341;DHT22;7770;52.158;5.372;2022-07-26T09:47:35;22.20;99.90
15341;DHT22;7770;52.158;5.372;2022-07-26T09:50:27;21.70;99.90
15341;DHT22;7770;52.158;5.372;2022-07-26T09:53:14;22.10;99.90
15341;DHT22;7770;52.158;5.372;2022-07-26T09:56:00;22.90;99.90
15341;DHT22;7770;52.158;5.372;2022-07-26T09:58:47;23.20;99.90
15341;DHT22;7770;52.158;5.372;2022-07-26T10:01:33;23.10;99.90
15341;DHT22;7770;52.158;5.372;2022-07-26T10:04:20;22.80;99.90
15341;DHT22;7770;52.158;5.372;2022-07-26T10:07:08;22.60;99.90
15341;DHT22;7770;52.158;5.372;2022-07-26T10:10:02;22.70;99.90
15341;DHT22;7770;52.158;5.372;2022-07-26T10:12:51;22.80;99.90
15341;DHT22;7770;52.158;5.372;2022-07-26T10:15:45;22.50;99.90
15341;DHT22;7770;52.158;5.372;2022-07-26T10:24:23;22.80;99.90
15341;DHT22;7770;52.158;5.372;2022-07-26T10:27:38;23.30;99.90
15341;DHT22;7770;52.158;5.372;2022-07-26T10:30:26;23.90;99.90
15341;DHT22;7770;52.158;5.372;2022-07-26T10:33:14;24.00;99.90
15341;DHT22;7770;52.158;5.372;2022-07-26T10:36:20;24.10;99.90
15341;DHT22;7770;52.158;5.372;2022-07-26T10:39:14;23.90;99.90
15341;DHT22;7770;52.158;5.372;2022-07-26T10:42:07;24.00;99.90
15341;DHT22;7770;52.158;5.372;2022-07-26T10:45:14;23.20;99.90
15341;DHT22;7770;52.158;5.372;2022-07-26T10:48:20;22.20;99.90
15341;DHT22;7770;52.158;5.372;2022-07-26T10:51:24;21.80;99.90
15341;DHT22;7770;52.158;5.372;2022-07-26T10:54:15;21.50;99.90
15341;DHT22;7770;52.158;5.372;2022-07-26T10:57:02;21.70;99.90
15341;DHT22;7770;52.158;5.372;2022-07-26T10:59:48;22.00;99.90
15341;DHT22;7770;52.158;5.372;2022-07-26T11:02:34;22.60;99.90
15341;DHT22;7770;52.158;5.372;2022-07-26T11:05:22;23.40;99.90
15341;DHT22;7770;52.158;5.372;2022-07-26T11:08:13;24.70;99.90
15341;DHT22;7770;52.158;5.372;2022-07-26T11:10:59;26.30;99.90
15341;DHT22;7770;52.158;5.372;2022-07-26T11:13:45;27.40;99.90
15341;DHT22;7770;52.158;5.372;2022-07-26T11:16:45;29.50;99.90
15341;DHT22;7770;52.158;5.372;2022-07-26T11:19:38;30.20;98.20
15341;DHT22;7770;52.158;5.372;2022-07-26T11:22:31;27.90;99.90
15341;DHT22;7770;52.158;5.372;2022-07-26T11:25:20;26.00;99.90
15341;DHT22;7770;52.158;5.372;2022-07-26T11:28:06;26.10;99.90
15341;DHT22;7770;52.158;5.372;2022-07-26T11:30:57;28.40;99.90
15341;DHT22;7770;52.158;5.372;2022-07-26T11:33:46;30.60;98.40
15341;DHT22;7770;52.158;5.372;2022-07-26T11:36:45;29.50;97.10
15341;DHT22;7770;52.158;5.372;2022-07-26T11:39:34;27.60;98.80
15341;DHT22;7770;52.158;5.372;2022-07-26T11:42:20;26.50;99.90
15341;DHT22;7770;52.158;5.372;2022-07-26T11:45:08;25.00;99.90
15341;DHT22;7770;52.158;5.372;2022-07-26T11:47:58;23.50;99.90
15341;DHT22;7770;52.158;5.372;2022-07-26T11:50:44;22.40;99.90
15341;DHT22;7770;52.158;5.372;2022-07-26T11:53:37;22.20;99.90
15341;DHT22;7770;52.158;5.372;2022-07-26T11:56:23;22.50;99.90
15341;DHT22;7770;52.158;5.372;2022-07-26T11:59:12;22.80;99.90
15341;DHT22;7770;52.158;5.372;2022-07-26T12:01:59;23.00;99.90
15341;DHT22;7770;52.158;5.372;2022-07-26T12:04:46;23.30;99.90
15341;DHT22;7770;52.158;5.372;2022-07-26T12:07:32;23.40;99.90
15341;DHT22;7770;52.158;5.372;2022-07-26T12:10:19;23.90;99.90
15341;DHT22;7770;52.158;5.372;2022-07-26T12:15:55;24.60;99.90
15341;DHT22;7770;52.158;5.372;2022-07-26T12:18:49;24.70;99.90
15341;DHT22;7770;52.158;5.372;2022-07-26T12:21:44;25.40;99.90
15341;DHT22;7770;52.158;5.372;2022-07-26T12:24:57;25.90;99.90
15341;DHT22;7770;52.158;5.372;2022-07-26T12:27:46;26.20;99.50
15341;DHT22;7770;52.158;5.372;2022-07-26T12:30:35;26.20;99.10
15341;DHT22;7770;52.158;5.372;2022-07-26T12:33:21;26.10;99.30
15341;DHT22;7770;52.158;5.372;2022-07-26T12:36:20;26.10;98.50
15341;DHT22;7770;52.158;5.372;2022-07-26T12:39:18;26.30;98.80
15341;DHT22;7770;52.158;5.372;2022-07-26T12:42:30;26.20;98.60
15341;DHT22;7770;52.158;5.372;2022-07-26T12:45:18;26.50;98.40
15341;DHT22;7770;52.158;5.372;2022-07-26T12:48:07;26.20;97.80
15341;DHT22;7770;52.158;5.372;2022-07-26T12:50:57;26.00;98.40
15341;DHT22;7770;52.158;5.372;2022-07-26T12:53:43;25.30;98.90
15341;DHT22;7770;52.158;5.372;2022-07-26T12:56:29;25.20;99.50
15341;DHT22;7770;52.158;5.372;2022-07-26T12:59:15;25.10;99.70
15341;DHT22;7770;52.158;5.372;2022-07-26T13:02:02;25.10;99.90
15341;DHT22;7770;52.158;5.372;2022-07-26T13:04:48;25.00;99.60
15341;DHT22;7770;52.158;5.372;2022-07-26T13:07:35;25.40;99.40
15341;DHT22;7770;52.158;5.372;2022-07-26T13:10:22;25.60;98.90
15341;DHT22;7770;52.158;5.372;2022-07-26T13:13:08;25.60;98.10
15341;DHT22;7770;52.158;5.372;2022-07-26T13:15:54;25.60;98.60
15341;DHT22;7770;52.158;5.372;2022-07-26T13:18:40;25.70;98.40
15341;DHT22;7770;52.158;5.372;2022-07-26T13:21:26;25.00;99.00
15341;DHT22;7770;52.158;5.372;2022-07-26T13:24:12;24.60;99.40
15341;DHT22;7770;52.158;5.372;2022-07-26T13:26:59;24.30;99.20
15341;DHT22;7770;52.158;5.372;2022-07-26T13:29:45;24.50;99.30
15341;DHT22;7770;52.158;5.372;2022-07-26T13:32:31;24.80;98.60
15341;DHT22;7770;52.158;5.372;2022-07-26T13:35:17;25.30;98.40
15341;DHT22;7770;52.158;5.372;2022-07-26T13:38:04;25.00;98.30
15341;DHT22;7770;52.158;5.372;2022-07-26T13:40:50;25.30;98.10
15341;DHT22;7770;52.158;5.372;2022-07-26T13:43:37;25.40;98.20
15341;DHT22;7770;52.158;5.372;2022-07-26T13:46:23;25.20;97.60
15341;DHT22;7770;52.158;5.372;2022-07-26T13:49:14;25.00;97.90
15341;DHT22;7770;52.158;5.372;2022-07-26T13:52:00;24.70;98.50
15341;DHT22;7770;52.158;5.372;2022-07-26T13:54:46;24.40;98.70
15341;DHT22;7770;52.158;5.372;2022-07-26T13:57:32;24.30;99.10
15341;DHT22;7770;52.158;5.372;2022-07-26T14:00:18;24.30;98.50
15341;DHT22;7770;52.158;5.372;2022-07-26T14:03:04;24.30;98.50
15341;DHT22;7770;52.158;5.372;2022-07-26T14:05:50;24.50;98.50
15341;DHT22;7770;52.158;5.372;2022-07-26T14:08:36;24.80;97.70
15341;DHT22;7770;52.158;5.372;2022-07-26T14:11:22;24.70;98.30
15341;DHT22;7770;52.158;5.372;2022-07-26T14:14:09;24.80;97.80
15341;DHT22;7770;52.158;5.372;2022-07-26T14:16:55;24.80;97.60
15341;DHT22;7770;52.158;5.372;2022-07-26T14:19:41;25.20;98.00
15341;DHT22;7770;52.158;5.372;2022-07-26T14:22:28;25.10;97.10
15341;DHT22;7770;52.158;5.372;2022-07-26T14:25:15;24.90;97.40
15341;DHT22;7770;52.158;5.372;2022-07-26T14:28:00;24.40;97.60
15341;DHT22;7770;52.158;5.372;2022-07-26T14:30:47;24.10;97.90
15341;DHT22;7770;52.158;5.372;2022-07-26T14:33:33;24.20;98.80
15341;DHT22;7770;52.158;5.372;2022-07-26T14:36:19;24.20;97.70
15341;DHT22;7770;52.158;5.372;2022-07-26T14:39:05;24.10;98.00
15341;DHT22;7770;52.158;5.372;2022-07-26T14:41:51;23.60;98.00
15341;DHT22;7770;52.158;5.372;2022-07-26T14:44:37;23.50;97.40
15341;DHT22;7770;52.158;5.372;2022-07-26T14:47:23;23.60;97.90
15341;DHT22;7770;52.158;5.372;2022-07-26T14:50:10;24.00;98.20
15341;DHT22;7770;52.158;5.372;2022-07-26T14:52:57;24.00;97.90
15341;DHT22;7770;52.158;5.372;2022-07-26T14:55:43;24.20;98.30
15341;DHT22;7770;52.158;5.372;2022-07-26T14:58:29;24.00;98.10
15341;DHT22;7770;52.158;5.372;2022-07-26T15:01:15;23.90;97.90
15341;DHT22;7770;52.158;5.372;2022-07-26T15:04:03;23.60;98.70
15341;DHT22;7770;52.158;5.372;2022-07-26T15:06:49;23.50;98.30
15341;DHT22;7770;52.158;5.372;2022-07-26T15:09:35;23.20;98.50
15341;DHT22;7770;52.158;5.372;2022-07-26T15:12:21;23.20;98.90
15341;DHT22;7770;52.158;5.372;2022-07-26T15:15:08;23.20;98.40
15341;DHT22;7770;52.158;5.372;2022-07-26T15:17:54;23.20;98.80
15341;DHT22;7770;52.158;5.372;2022-07-26T15:20:41;23.30;98.80
15341;DHT22;7770;52.158;5.372;2022-07-26T15:23:27;23.30;99.20
15341;DHT22;7770;52.158;5.372;2022-07-26T15:26:13;23.20;99.00
15341;DHT22;7770;52.158;5.372;2022-07-26T15:28:59;23.20;99.60
15341;DHT22;7770;52.158;5.372;2022-07-26T15:31:46;23.40;99.00
15341;DHT22;7770;52.158;5.372;2022-07-26T15:34:33;23.10;99.00
15341;DHT22;7770;52.158;5.372;2022-07-26T15:37:19;22.90;99.30
15341;DHT22;7770;52.158;5.372;2022-07-26T15:40:06;22.40;99.40
15341;DHT22;7770;52.158;5.372;2022-07-26T15:42:52;22.40;99.90
15341;DHT22;7770;52.158;5.372;2022-07-26T15:45:38;22.40;99.40
15341;DHT22;7770;52.158;5.372;2022-07-26T15:48:25;22.70;99.70
15341;DHT22;7770;52.158;5.372;2022-07-26T15:51:13;22.30;98.70
15341;DHT22;7770;52.158;5.372;2022-07-26T15:54:01;22.10;99.40
15341;DHT22;7770;52.158;5.372;2022-07-26T15:56:47;22.10;99.20
15341;DHT22;7770;52.158;5.372;2022-07-26T15:59:34;22.10;98.80
15341;DHT22;7770;52.158;5.372;2022-07-26T16:02:20;22.00;99.40
15341;DHT22;7770;52.158;5.372;2022-07-26T16:05:07;21.90;99.50
15341;DHT22;7770;52.158;5.372;2022-07-26T16:07:54;21.70;99.30
15341;DHT22;7770;52.158;5.372;2022-07-26T16:10:40;21.50;99.60
15341;DHT22;7770;52.158;5.372;2022-07-26T16:13:26;21.40;99.70
15341;DHT22;7770;52.158;5.372;2022-07-26T16:16:12;21.40;99.30
15341;DHT22;7770;52.158;5.372;2022-07-26T16:18:59;21.70;99.80
15341;DHT22;7770;52.158;5.372;2022-07-26T16:21:45;21.80;99.70
15341;DHT22;7770;52.158;5.372;2022-07-26T16:24:31;21.90;99.10
15341;DHT22;7770;52.158;5.372;2022-07-26T16:27:17;21.70;99.60
15341;DHT22;7770;52.158;5.372;2022-07-26T16:30:03;21.60;99.90
15341;DHT22;7770;52.158;5.372;2022-07-26T16:32:50;21.50;99.90
15341;DHT22;7770;52.158;5.372;2022-07-26T16:35:36;21.30;99.90
15341;DHT22;7770;52.158;5.372;2022-07-26T16:38:22;21.20;99.90
15341;DHT22;7770;52.158;5.372;2022-07-26T16:41:08;21.10;99.90
15341;DHT22;7770;52.158;5.372;2022-07-26T16:43:55;20.90;99.90
15341;DHT22;7770;52.158;5.372;2022-07-26T16:46:41;20.60;99.90
15341;DHT22;7770;52.158;5.372;2022-07-26T16:49:27;20.40;99.90
15341;DHT22;7770;52.158;5.372;2022-07-26T16:52:13;20.60;99.90
15341;DHT22;7770;52.158;5.372;2022-07-26T16:55:00;20.70;99.90
15341;DHT22;7770;52.158;5.372;2022-07-26T16:57:48;20.60;99.90
15341;DHT22;7770;52.158;5.372;2022-07-26T17:00:34;20.60;99.90
15341;DHT22;7770;52.158;5.372;2022-07-26T17:03:20;20.30;99.90
15341;DHT22;7770;52.158;5.372;2022-07-26T17:06:06;20.20;99.90
15341;DHT22;7770;52.158;5.372;2022-07-26T17:08:53;20.20;99.90
15341;DHT22;7770;52.158;5.372;2022-07-26T17:11:39;20.10;99.90
15341;DHT22;7770;52.158;5.372;2022-07-26T17:14:25;20.00;99.90
15341;DHT22;7770;52.158;5.372;2022-07-26T17:17:11;20.10;99.90
15341;DHT22;7770;52.158;5.372;2022-07-26T17:19:57;20.00;99.90
15341;DHT22;7770;52.158;5.372;2022-07-26T17:22:43;20.00;99.90
15341;DHT22;7770;52.158;5.372;2022-07-26T17:25:29;20.00;99.90
15341;DHT22;7770;52.158;5.372;2022-07-26T17:28:15;19.90;99.90
15341;DHT22;7770;52.158;5.372;2022-07-26T17:31:02;19.80;99.90
15341;DHT22;7770;52.158;5.372;2022-07-26T17:33:48;19.80;99.90
15341;DHT22;7770;52.158;5.372;2022-07-26T17:36:35;19.70;99.90
15341;DHT22;7770;52.158;5.372;2022-07-26T17:39:22;19.70;99.90
15341;DHT22;7770;52.158;5.372;2022-07-26T17:42:08;19.80;99.90
15341;DHT22;7770;52.158;5.372;2022-07-26T17:44:54;19.90;99.90
15341;DHT22;7770;52.158;5.372;2022-07-26T17:47:40;20.10;99.90
15341;DHT22;7770;52.158;5.372;2022-07-26T17:50:26;20.10;99.90
15341;DHT22;7770;52.158;5.372;2022-07-26T17:53:12;20.10;99.90
15341;DHT22;7770;52.158;5.372;2022-07-26T17:55:58;20.00;99.90
15341;DHT22;7770;52.158;5.372;2022-07-26T17:58:44;19.80;99.90
15341;DHT22;7770;52.158;5.372;2022-07-26T18:01:30;19.60;99.90
15341;DHT22;7770;52.158;5.372;2022-07-26T18:04:17;19.40;99.90
15341;DHT22;7770;52.158;5.372;2022-07-26T18:07:03;19.20;99.90